Etusivu
METAR-TAF:

METAR-TAF

Lentoasemat :

Kittilän lentoasema

Kittilä, Suomi

Leveyspiiri: 67-42N, Pituuspiiri: 024-51E, korkeus merenpinnasta: 196 m

Tämänhetkinen sää

Tämä raportti tehtiin 33 minuuttia sitten, kello 09.20 UTC
Tuuli 6 kn idästä, vaihdellen idän/koillisen ja kaakon välillä
Lämpötila -4°C
Kosteus 93%
Ilmanpaine 1021 hPa
Näkyvyys 10 km tai enemmän
Pilvistä 400 ft:n korkeudessa

METAR: EFKT 170920Z 10006KT 060V130 9999 OVC004 M04/M05 Q1021

Aika: 11:53 (09:53 UTC)

Sääennuste

Tämä raportti tehtiin 1 tunti ja 15 minuuttia sitten, kello 08.38 UTC
Ennuste voimassa 17. päivästä klo 09 UTC - 17. päivään klo 18 UTC
Tuuli 5 kn idästä/koillisesta
Näkyvyys 10 km tai enemmän
Pilvistä 400 ft:n korkeudessa
Ajoittain
17. päivästä klo 09 UTC - 17. päivään klo 18 UTC
Näkyvyys: 2000 m
Hajonneita pilviä 500 ft:n korkeudessa
heikkoa lumisadetta

TAF: EFKT 170838Z 1709/1718 07005KT 9999 OVC004 TEMPO 1709/1718 2000 -SN BKN005

Säähavainnot ja -ennusteet yli 4000 lentoasemalta (METAR- ja TAF-raportit).

Käytössä olevat sääasemat on merkitty karttaan keltaisilla ja punaisilla pisteillä.

Aseta hiiri pisteen päälle nähdäksesi sääaseman nimen.

Klikkaa sitten nähdäksesi säähavainnot ja -ennusteet.

Kartan vaihtaminen: klikkaa mustalla rastilla varustettuja vihreitä pisteitä, niin voit zoomata sisään; viivalla varustettua vihreää pistettä, niin voit zoomata ulos tai vihreitä nuolia, niin pääset viereisille kartoille.


METAR-TAF: